Alpine, New Jersey
Current Conditions -  °F | °C
As of 2:51 PM on Sunday 25 Jan 2015 (Local Time) from KTEB Reporting Station
Clear Clear  
Wind Chill: 32°   Ceiling: Unl
Heat Index: 40°   Visibility: 10mi
Dew Point: 13°   Wind: 14mph
Humidity: 33%   Direction: 310°NW
Pressure: 29.79"   Gusts: NA
Location:  40.96°N, 73.93°W
Report Text: KTEB 251951Z 31012KT 10SM CLR 04/M11 A2979 RMK AO2 SLP086 T00441106 $
Loading
Personal Weather Stations






























Interactive Weather Map New forecast layout! Learn more

10-Day Weather Forecast

Advertisements
Track Severe Weather on mobile